createdAt,value
2023-05-07T00:00:01.533Z,15.30
2023-05-07T00:02:28.572Z,15.20
2023-05-07T00:04:56.521Z,15.30
2023-05-07T00:07:23.695Z,15.30
2023-05-07T00:09:50.585Z,15.30
2023-05-07T00:12:18.551Z,15.30
2023-05-07T00:14:45.624Z,15.30
2023-05-07T00:17:12.479Z,15.30
2023-05-07T00:19:39.356Z,15.30
2023-05-07T00:22:08.112Z,15.30
2023-05-07T00:24:35.509Z,15.30
2023-05-07T00:27:02.374Z,15.30
2023-05-07T00:29:30.361Z,15.30
2023-05-07T00:31:57.248Z,15.20
2023-05-07T00:34:24.210Z,15.20
2023-05-07T00:36:51.080Z,15.20
2023-05-07T00:39:40.480Z,15.20
2023-05-07T00:42:09.159Z,15.20
2023-05-07T00:44:36.002Z,15.20
2023-05-07T00:47:03.852Z,15.10
2023-05-07T00:49:42.242Z,15.10
2023-05-07T00:52:10.200Z,15.10
2023-05-07T00:54:53.099Z,15.00
2023-05-07T00:57:21.262Z,15.00
2023-05-07T00:59:48.128Z,15.00
2023-05-07T01:02:15.164Z,15.00
2023-05-07T01:04:42.232Z,14.90
2023-05-07T01:09:01.841Z,14.90
2023-05-07T01:12:58.896Z,14.90
2023-05-07T01:18:12.437Z,14.90
2023-05-07T01:24:04.103Z,14.80
2023-05-07T01:27:27.396Z,14.80
2023-05-07T01:29:54.277Z,14.80
2023-05-07T01:32:39.630Z,14.80
2023-05-07T01:35:07.185Z,14.70
2023-05-07T01:37:34.128Z,14.70
2023-05-07T01:43:10.847Z,14.60
2023-05-07T01:45:37.807Z,14.50
2023-05-07T01:51:02.799Z,14.50
2023-05-07T01:57:27.546Z,14.40
2023-05-07T02:03:22.031Z,14.40
2023-05-07T02:08:36.627Z,14.30
2023-05-07T02:13:23.459Z,14.20
2023-05-07T02:19:22.639Z,14.20
2023-05-07T02:22:43.756Z,14.20
2023-05-07T02:28:11.427Z,14.20
2023-05-07T02:30:50.781Z,14.10
2023-05-07T02:34:54.892Z,14.10
2023-05-07T02:37:44.474Z,14.10
2023-05-07T02:41:31.555Z,14.00
2023-05-07T02:44:57.654Z,14.00
2023-05-07T02:47:24.514Z,13.90
2023-05-07T02:50:11.826Z,13.90
2023-05-07T02:53:37.855Z,13.90
2023-05-07T02:56:08.094Z,13.80
2023-05-07T03:00:38.400Z,13.90
2023-05-07T03:05:15.516Z,13.70
2023-05-07T03:08:28.609Z,13.70
2023-05-07T03:12:22.874Z,13.60
2023-05-07T03:15:17.915Z,13.60
2023-05-07T03:20:16.723Z,13.60
2023-05-07T03:25:06.938Z,13.70
2023-05-07T03:28:11.586Z,13.70
2023-05-07T03:34:23.097Z,13.70
2023-05-07T03:39:58.892Z,13.80
2023-05-07T03:43:17.872Z,13.90
2023-05-07T03:48:13.152Z,13.90
2023-05-07T03:54:40.528Z,13.90
2023-05-07T03:57:07.381Z,14.00
2023-05-07T04:00:03.746Z,14.10
2023-05-07T04:05:18.208Z,14.10
2023-05-07T04:07:45.527Z,14.10
2023-05-07T04:11:41.213Z,14.10
2023-05-07T04:16:14.315Z,14.10
2023-05-07T04:22:20.501Z,14.10
2023-05-07T04:27:07.506Z,14.20
2023-05-07T04:32:40.581Z,14.30
2023-05-07T04:37:07.961Z,14.30
2023-05-07T04:41:51.815Z,14.40
2023-05-07T04:45:02.206Z,14.40
2023-05-07T04:48:58.748Z,14.50
2023-05-07T04:52:27.786Z,14.50
2023-05-07T04:55:33.736Z,14.50
2023-05-07T04:59:45.818Z,14.60
2023-05-07T05:02:12.753Z,14.60
2023-05-07T05:06:33.952Z,14.70
2023-05-07T05:09:23.197Z,14.70
2023-05-07T05:11:49.955Z,14.70
2023-05-07T05:15:16.458Z,14.80
2023-05-07T05:20:05.948Z,14.80
2023-05-07T05:25:58.864Z,14.80
2023-05-07T05:32:05.550Z,14.90
2023-05-07T05:38:15.541Z,15.00
2023-05-07T05:42:01.666Z,15.20
2023-05-07T05:44:36.267Z,15.20
2023-05-07T05:49:34.914Z,15.30
2023-05-07T05:52:01.790Z,15.40
2023-05-07T05:55:30.002Z,15.40
2023-05-07T05:59:46.128Z,15.40
2023-05-07T06:04:01.673Z,15.50
2023-05-07T06:10:25.393Z,15.60
2023-05-07T06:13:10.249Z,15.70
2023-05-07T06:16:43.354Z,15.70
2023-05-07T06:19:37.763Z,15.80
2023-05-07T06:22:35.620Z,16.00
2023-05-07T06:25:55.042Z,16.10
2023-05-07T06:29:34.802Z,16.20
2023-05-07T06:32:34.867Z,16.30
2023-05-07T06:35:16.374Z,16.40
2023-05-07T06:38:13.532Z,16.40
2023-05-07T06:40:56.262Z,16.40
2023-05-07T06:43:23.172Z,16.50
2023-05-07T06:45:56.631Z,16.50
2023-05-07T06:49:11.393Z,16.60
2023-05-07T06:51:47.614Z,16.70
2023-05-07T06:54:38.582Z,16.70
2023-05-07T06:57:52.158Z,16.80
2023-05-07T07:01:23.279Z,16.90
2023-05-07T07:04:55.907Z,17.00
2023-05-07T07:08:56.478Z,17.20
2023-05-07T07:13:43.884Z,17.30
2023-05-07T07:16:37.496Z,17.30
2023-05-07T07:22:05.715Z,17.40
2023-05-07T07:24:32.545Z,17.40
2023-05-07T07:27:27.336Z,17.50
2023-05-07T07:29:58.761Z,17.70
2023-05-07T07:32:25.728Z,17.70
2023-05-07T07:34:52.697Z,17.80
2023-05-07T07:37:19.596Z,17.80
2023-05-07T07:39:47.458Z,18.00
2023-05-07T07:42:14.324Z,18.10
2023-05-07T07:44:41.183Z,18.20
2023-05-07T07:47:08.179Z,18.30
2023-05-07T07:49:35.184Z,18.40
2023-05-07T07:52:02.025Z,18.40
2023-05-07T07:54:30.358Z,18.40
2023-05-07T07:56:57.228Z,18.40
2023-05-07T07:59:24.050Z,18.40
2023-05-07T08:01:55.372Z,18.40
2023-05-07T08:04:22.895Z,18.50
2023-05-07T08:06:49.925Z,18.50
2023-05-07T08:09:16.817Z,18.60
2023-05-07T08:11:43.676Z,18.60
2023-05-07T08:14:12.114Z,18.50
2023-05-07T08:16:40.048Z,18.40
2023-05-07T08:19:06.958Z,18.20
2023-05-07T08:21:35.371Z,18.00
2023-05-07T08:24:02.228Z,17.70
2023-05-07T08:26:29.095Z,17.50
2023-05-07T08:28:56.011Z,17.40
2023-05-07T08:31:22.887Z,17.30
2023-05-07T08:33:49.849Z,17.30
2023-05-07T08:36:16.750Z,17.40
2023-05-07T08:38:46.713Z,17.50
2023-05-07T08:41:13.774Z,17.40
2023-05-07T08:43:41.901Z,17.40
2023-05-07T08:46:10.635Z,17.40
2023-05-07T08:48:37.589Z,17.50
2023-05-07T08:51:05.511Z,17.50
2023-05-07T08:53:32.437Z,17.60
2023-05-07T08:55:59.678Z,17.60
2023-05-07T08:58:26.567Z,17.40
2023-05-07T09:00:53.620Z,17.30
2023-05-07T09:03:20.628Z,17.30
2023-05-07T09:05:48.609Z,17.40
2023-05-07T09:08:16.489Z,17.40
2023-05-07T09:10:43.528Z,17.50
2023-05-07T09:13:12.101Z,17.50
2023-05-07T09:15:39.089Z,17.50
2023-05-07T09:18:06.033Z,17.50
2023-05-07T09:20:33.092Z,17.50
2023-05-07T09:23:01.075Z,17.60
2023-05-07T09:25:32.677Z,17.70
2023-05-07T09:28:01.355Z,17.80
2023-05-07T09:30:30.558Z,17.90
2023-05-07T09:32:58.757Z,18.00
2023-05-07T09:35:29.553Z,18.10
2023-05-07T09:37:57.048Z,18.10
2023-05-07T09:40:24.980Z,18.20
2023-05-07T09:42:51.906Z,18.20
2023-05-07T09:45:28.787Z,18.20
2023-05-07T09:47:56.933Z,18.20
2023-05-07T09:50:37.153Z,18.20
2023-05-07T09:53:04.857Z,18.10
2023-05-07T09:55:31.781Z,18.10
2023-05-07T09:57:58.630Z,18.00
2023-05-07T10:00:25.568Z,18.00
2023-05-07T10:02:55.577Z,18.10
2023-05-07T10:05:27.699Z,18.10
2023-05-07T10:07:54.574Z,18.10
2023-05-07T10:10:21.469Z,18.10
2023-05-07T10:12:48.422Z,18.10
2023-05-07T10:15:15.664Z,18.00
2023-05-07T10:17:42.717Z,17.90
2023-05-07T10:20:09.867Z,17.80
2023-05-07T10:22:43.986Z,17.70
2023-05-07T10:25:27.515Z,17.60
2023-05-07T10:27:54.377Z,17.50
2023-05-07T10:30:27.794Z,17.40
2023-05-07T10:32:59.150Z,17.40
2023-05-07T10:35:27.496Z,17.40
2023-05-07T10:37:54.341Z,17.40
2023-05-07T10:40:21.741Z,17.40
2023-05-07T10:43:10.013Z,17.40
2023-05-07T10:45:37.782Z,17.40
2023-05-07T10:50:45.624Z,17.30
2023-05-07T10:53:18.827Z,17.20
2023-05-07T10:55:45.672Z,17.20
2023-05-07T10:58:32.541Z,17.20
2023-05-07T11:01:00.831Z,17.30
2023-05-07T11:03:28.466Z,17.40
2023-05-07T11:06:14.184Z,17.50
2023-05-07T11:08:59.307Z,17.50
2023-05-07T11:11:47.971Z,17.50
2023-05-07T11:14:15.996Z,17.40
2023-05-07T11:16:43.926Z,17.40
2023-05-07T11:19:10.892Z,17.50
2023-05-07T11:21:38.835Z,17.70
2023-05-07T11:24:06.808Z,17.80
2023-05-07T11:26:50.195Z,17.80
2023-05-07T11:29:23.760Z,18.10
2023-05-07T11:31:54.813Z,18.20
2023-05-07T11:34:24.751Z,18.30
2023-05-07T11:36:51.728Z,18.40
2023-05-07T11:39:26.163Z,18.40
2023-05-07T11:41:53.688Z,18.40
2023-05-07T11:44:20.891Z,18.40
2023-05-07T11:46:47.776Z,18.40
2023-05-07T11:49:14.733Z,18.40
2023-05-07T11:51:42.935Z,18.30
2023-05-07T11:54:12.184Z,18.10
2023-05-07T11:56:39.840Z,18.00
2023-05-07T11:59:07.288Z,17.90
2023-05-07T12:01:36.246Z,17.70
2023-05-07T12:06:31.980Z,17.40
2023-05-07T12:08:58.838Z,17.20
2023-05-07T12:11:26.876Z,17.30
2023-05-07T12:13:58.955Z,17.40
2023-05-07T12:16:26.748Z,17.40
2023-05-07T12:18:56.015Z,17.40
2023-05-07T12:21:23.227Z,17.40
2023-05-07T12:23:50.136Z,17.20
2023-05-07T12:26:17.046Z,17.30
2023-05-07T12:28:43.917Z,17.40
2023-05-07T12:31:11.583Z,17.50
2023-05-07T12:33:38.607Z,17.70
2023-05-07T12:36:08.402Z,17.80
2023-05-07T12:38:44.471Z,17.90
2023-05-07T12:41:13.302Z,18.00
2023-05-07T12:43:40.374Z,18.00
2023-05-07T12:46:08.134Z,18.20
2023-05-07T12:48:36.815Z,18.20
2023-05-07T12:51:03.899Z,18.30
2023-05-07T12:53:32.178Z,18.40
2023-05-07T12:55:59.917Z,18.40
2023-05-07T12:58:28.346Z,18.30
2023-05-07T13:00:55.432Z,18.10
2023-05-07T13:03:30.924Z,18.00
2023-05-07T13:06:03.923Z,18.00
2023-05-07T13:08:46.299Z,18.10
2023-05-07T13:11:13.609Z,18.40
2023-05-07T13:13:41.720Z,19.00
2023-05-07T13:16:10.020Z,19.70
2023-05-07T13:18:37.564Z,19.90
2023-05-07T13:21:04.759Z,19.90
2023-05-07T13:23:31.782Z,19.70
2023-05-07T13:25:58.721Z,19.60
2023-05-07T13:28:25.793Z,19.00
2023-05-07T13:30:53.273Z,18.80
2023-05-07T13:33:20.180Z,18.70
2023-05-07T13:35:47.111Z,18.50
2023-05-07T13:38:14.030Z,18.20
2023-05-07T13:40:41.905Z,18.40
2023-05-07T13:43:09.082Z,18.40
2023-05-07T13:45:36.073Z,18.30
2023-05-07T13:48:04.239Z,18.10
2023-05-07T13:50:31.230Z,18.30
2023-05-07T13:52:58.140Z,18.30
2023-05-07T13:55:25.264Z,18.20
2023-05-07T13:58:01.034Z,18.00
2023-05-07T14:00:28.315Z,17.80
2023-05-07T14:02:56.019Z,18.00
2023-05-07T14:05:27.707Z,18.10
2023-05-07T14:07:55.227Z,18.50
2023-05-07T14:10:22.124Z,18.60
2023-05-07T14:12:49.041Z,18.40
2023-05-07T14:15:16.448Z,18.40
2023-05-07T14:17:44.127Z,18.20
2023-05-07T14:20:13.372Z,18.00
2023-05-07T14:22:40.626Z,17.80
2023-05-07T14:25:08.185Z,17.80
2023-05-07T14:27:35.148Z,17.90
2023-05-07T14:30:02.228Z,18.10
2023-05-07T14:32:29.128Z,17.70
2023-05-07T14:34:55.991Z,17.50
2023-05-07T14:37:22.876Z,17.40
2023-05-07T14:39:50.181Z,17.40
2023-05-07T14:42:18.210Z,17.50
2023-05-07T14:44:46.611Z,17.30
2023-05-07T14:47:14.056Z,17.10
2023-05-07T14:49:41.895Z,16.90
2023-05-07T14:52:11.226Z,17.00
2023-05-07T14:54:39.267Z,17.00
2023-05-07T14:57:06.900Z,17.10
2023-05-07T14:59:33.879Z,17.30
2023-05-07T15:02:01.234Z,17.10
2023-05-07T15:04:29.514Z,17.40
2023-05-07T15:06:57.113Z,17.70
2023-05-07T15:09:25.044Z,17.80
2023-05-07T15:11:51.958Z,18.00
2023-05-07T15:14:19.014Z,18.10
2023-05-07T15:16:46.842Z,18.10
2023-05-07T15:19:15.906Z,18.00
2023-05-07T15:21:42.902Z,18.00
2023-05-07T15:24:10.411Z,18.00
2023-05-07T15:26:37.537Z,18.00
2023-05-07T15:29:11.057Z,18.20
2023-05-07T15:31:41.226Z,18.10
2023-05-07T15:34:08.201Z,18.00
2023-05-07T15:36:35.043Z,18.00
2023-05-07T15:39:03.668Z,18.10
2023-05-07T15:41:30.878Z,17.90
2023-05-07T15:43:58.753Z,17.90
2023-05-07T15:46:26.004Z,17.70
2023-05-07T15:48:53.746Z,17.60
2023-05-07T15:51:23.713Z,17.60
2023-05-07T15:53:52.025Z,17.70
2023-05-07T15:56:19.075Z,17.50
2023-05-07T15:58:46.462Z,17.50
2023-05-07T16:01:13.370Z,17.50
2023-05-07T16:03:41.328Z,17.60
2023-05-07T16:06:08.495Z,17.80
2023-05-07T16:08:35.543Z,17.80
2023-05-07T16:11:02.422Z,18.30
2023-05-07T16:13:29.382Z,19.00
2023-05-07T16:15:58.455Z,19.20
2023-05-07T16:18:25.425Z,19.30
2023-05-07T16:20:52.658Z,19.30
2023-05-07T16:23:19.537Z,19.30
2023-05-07T16:25:46.522Z,19.60
2023-05-07T16:28:14.069Z,19.60
2023-05-07T16:30:41.045Z,19.70
2023-05-07T16:33:08.401Z,19.90
2023-05-07T16:35:36.293Z,19.50
2023-05-07T16:38:09.880Z,19.50
2023-05-07T16:40:40.260Z,19.50
2023-05-07T16:43:07.193Z,19.50
2023-05-07T16:45:34.126Z,19.80
2023-05-07T16:48:01.347Z,20.10
2023-05-07T16:50:28.307Z,20.20
2023-05-07T16:52:55.218Z,20.30
2023-05-07T16:55:22.201Z,20.20
2023-05-07T16:57:49.055Z,20.20
2023-05-07T17:00:16.888Z,20.30
2023-05-07T17:02:43.985Z,20.60
2023-05-07T17:05:12.129Z,20.50
2023-05-07T17:07:39.169Z,20.30
2023-05-07T17:10:06.536Z,20.40
2023-05-07T17:12:35.686Z,20.60
2023-05-07T17:15:02.680Z,20.50
2023-05-07T17:17:29.657Z,20.30
2023-05-07T17:19:56.982Z,20.50
2023-05-07T17:22:25.155Z,20.30
2023-05-07T17:24:52.204Z,20.30
2023-05-07T17:27:19.225Z,20.30
2023-05-07T17:29:46.077Z,19.90
2023-05-07T17:32:13.040Z,19.10
2023-05-07T17:34:39.966Z,18.60
2023-05-07T17:37:06.822Z,18.20
2023-05-07T17:39:33.746Z,17.70
2023-05-07T17:42:03.694Z,17.40
2023-05-07T17:44:30.685Z,17.10
2023-05-07T17:46:57.614Z,17.00
2023-05-07T17:49:24.564Z,16.80
2023-05-07T17:51:55.414Z,16.80
2023-05-07T17:54:26.092Z,16.60
2023-05-07T17:56:53.186Z,16.50
2023-05-07T17:59:23.141Z,16.30
2023-05-07T18:01:51.077Z,16.30
2023-05-07T18:04:20.003Z,16.20
2023-05-07T18:06:48.044Z,16.30
2023-05-07T18:09:15.928Z,16.20
2023-05-07T18:11:42.810Z,16.10
2023-05-07T18:14:09.704Z,16.00
2023-05-07T18:16:36.651Z,15.90
2023-05-07T18:19:03.604Z,15.80
2023-05-07T18:21:30.586Z,15.70
2023-05-07T18:23:57.604Z,15.80
2023-05-07T18:26:24.500Z,15.80
2023-05-07T18:28:51.476Z,15.70
2023-05-07T18:31:18.348Z,15.60
2023-05-07T18:33:46.333Z,15.70
2023-05-07T18:36:13.187Z,15.60
2023-05-07T18:38:42.643Z,15.60
2023-05-07T18:41:09.640Z,15.60
2023-05-07T18:43:36.727Z,15.50
2023-05-07T18:46:03.640Z,15.50
2023-05-07T18:48:30.904Z,15.50
2023-05-07T18:50:59.825Z,15.50
2023-05-07T18:53:29.107Z,15.50
2023-05-07T18:55:58.058Z,15.40
2023-05-07T18:58:24.905Z,15.40
2023-05-07T19:00:51.845Z,15.30
2023-05-07T19:03:20.760Z,15.20
2023-05-07T19:05:48.660Z,15.20
2023-05-07T19:08:16.519Z,15.20
2023-05-07T19:10:45.177Z,15.20
2023-05-07T19:13:12.325Z,15.10
2023-05-07T19:15:39.726Z,15.10
2023-05-07T19:18:06.658Z,15.00
2023-05-07T19:20:33.536Z,15.00
2023-05-07T19:23:00.422Z,15.10
2023-05-07T19:25:27.319Z,15.00
2023-05-07T19:27:55.829Z,15.00
2023-05-07T19:30:22.748Z,15.00
2023-05-07T19:32:49.634Z,15.00
2023-05-07T19:35:16.628Z,15.00
2023-05-07T19:37:43.524Z,15.00
2023-05-07T19:40:10.965Z,15.00
2023-05-07T19:42:37.956Z,15.00
2023-05-07T19:45:05.620Z,15.00
2023-05-07T19:47:33.590Z,14.90
2023-05-07T19:50:00.478Z,14.90
2023-05-07T19:52:27.385Z,14.90
2023-05-07T19:54:54.776Z,14.80
2023-05-07T19:57:21.648Z,14.80
2023-05-07T19:59:48.520Z,14.80
2023-05-07T20:02:15.639Z,14.70
2023-05-07T20:04:42.588Z,14.70
2023-05-07T20:07:12.611Z,14.70
2023-05-07T20:09:41.687Z,14.70
2023-05-07T20:12:10.719Z,14.80
2023-05-07T20:14:37.610Z,14.70
2023-05-07T20:17:05.574Z,14.70
2023-05-07T20:19:32.463Z,14.70
2023-05-07T20:21:59.294Z,14.70
2023-05-07T20:24:26.165Z,14.70
2023-05-07T20:26:53.059Z,14.80
2023-05-07T20:29:22.702Z,14.80
2023-05-07T20:31:50.639Z,14.80
2023-05-07T20:34:17.536Z,14.70
2023-05-07T20:36:45.345Z,14.70
2023-05-07T20:39:16.003Z,14.70
2023-05-07T20:41:44.260Z,14.70
2023-05-07T20:44:12.221Z,14.80
2023-05-07T20:46:40.173Z,14.70
2023-05-07T20:49:07.130Z,14.80
2023-05-07T20:51:35.260Z,14.80
2023-05-07T20:54:02.306Z,14.70
2023-05-07T20:56:30.171Z,14.70
2023-05-07T20:58:57.009Z,14.60
2023-05-07T21:01:23.977Z,14.50
2023-05-07T21:03:53.801Z,14.50
2023-05-07T21:06:21.025Z,14.40
2023-05-07T21:08:47.864Z,14.40
2023-05-07T21:11:14.699Z,14.30
2023-05-07T21:13:41.562Z,14.20
2023-05-07T21:16:10.161Z,14.20
2023-05-07T21:18:37.471Z,14.10
2023-05-07T21:21:08.485Z,14.10
2023-05-07T21:23:36.034Z,14.10
2023-05-07T21:26:03.457Z,14.10
2023-05-07T21:28:30.485Z,14.10
2023-05-07T21:30:57.329Z,14.10
2023-05-07T21:33:24.229Z,14.10
2023-05-07T21:35:53.544Z,14.10
2023-05-07T21:38:20.413Z,14.10
2023-05-07T21:40:47.308Z,14.10
2023-05-07T21:43:14.203Z,14.10
2023-05-07T21:45:41.284Z,14.10
2023-05-07T21:48:08.386Z,14.10
2023-05-07T21:50:35.279Z,14.10
2023-05-07T21:53:02.165Z,14.10
2023-05-07T21:55:29.092Z,14.10
2023-05-07T21:58:04.811Z,14.10
2023-05-07T22:00:33.029Z,14.10
2023-05-07T22:03:00.295Z,14.10
2023-05-07T22:05:27.412Z,14.10
2023-05-07T22:07:54.301Z,14.10
2023-05-07T22:10:22.943Z,14.10
2023-05-07T22:12:50.208Z,14.10
2023-05-07T22:15:18.313Z,14.10
2023-05-07T22:17:45.493Z,14.10
2023-05-07T22:20:15.914Z,14.00
2023-05-07T22:22:52.289Z,14.00
2023-05-07T22:25:20.238Z,14.00
2023-05-07T22:27:47.077Z,14.00
2023-05-07T22:30:14.231Z,14.10
2023-05-07T22:32:44.647Z,14.00
2023-05-07T22:35:11.594Z,14.00
2023-05-07T22:37:40.484Z,14.00
2023-05-07T22:40:08.702Z,13.90
2023-05-07T22:42:35.575Z,13.90
2023-05-07T22:45:02.499Z,13.90
2023-05-07T22:47:31.011Z,13.80
2023-05-07T22:50:07.290Z,13.80
2023-05-07T22:52:34.599Z,13.70
2023-05-07T22:55:01.567Z,13.70
2023-05-07T22:57:28.466Z,13.70
2023-05-07T22:59:58.278Z,13.70
2023-05-07T23:02:28.034Z,13.70
2023-05-07T23:04:55.126Z,13.80
2023-05-07T23:07:22.118Z,13.80
2023-05-07T23:09:51.072Z,13.70
2023-05-07T23:12:17.976Z,13.70
2023-05-07T23:14:44.840Z,13.70
2023-05-07T23:17:11.877Z,13.70
2023-05-07T23:19:38.835Z,13.70
2023-05-07T23:22:07.087Z,13.70
2023-05-07T23:24:34.994Z,13.70
2023-05-07T23:27:05.750Z,13.70
2023-05-07T23:29:32.805Z,13.70
2023-05-07T23:32:00.919Z,13.60
2023-05-07T23:34:29.765Z,13.60
2023-05-07T23:36:56.626Z,13.60
2023-05-07T23:39:29.500Z,13.60
2023-05-07T23:41:56.381Z,13.60
2023-05-07T23:44:24.546Z,13.60
2023-05-07T23:46:51.462Z,13.50
2023-05-07T23:49:18.317Z,13.50
2023-05-07T23:51:45.182Z,13.50
2023-05-07T23:54:12.062Z,13.50
2023-05-07T23:56:39.958Z,13.50
2023-05-07T23:59:06.892Z,13.40
